sensor_id;sensor_type;location;lat;lon;timestamp;P1;durP1;ratioP1;P2;durP2;ratioP2
64932;SDS011;51446;53.850;10.662;2023-04-15T00:00:13;12.60;;;8.17;;
64932;SDS011;51446;53.850;10.662;2023-04-15T00:02:41;12.63;;;9.02;;
64932;SDS011;51446;53.850;10.662;2023-04-15T00:05:06;16.53;;;10.30;;
64932;SDS011;51446;53.850;10.662;2023-04-15T00:07:32;13.30;;;9.60;;
64932;SDS011;51446;53.850;10.662;2023-04-15T00:09:57;14.70;;;10.07;;
64932;SDS011;51446;53.850;10.662;2023-04-15T00:12:23;13.35;;;9.63;;
64932;SDS011;51446;53.850;10.662;2023-04-15T00:14:50;14.13;;;9.70;;
64932;SDS011;51446;53.850;10.662;2023-04-15T00:17:15;13.97;;;9.33;;
64932;SDS011;51446;53.850;10.662;2023-04-15T00:19:41;14.70;;;10.00;;
64932;SDS011;51446;53.850;10.662;2023-04-15T00:22:06;16.35;;;10.32;;
64932;SDS011;51446;53.850;10.662;2023-04-15T00:24:32;13.57;;;9.77;;
64932;SDS011;51446;53.850;10.662;2023-04-15T00:26:57;17.05;;;10.30;;
64932;SDS011;51446;53.850;10.662;2023-04-15T00:29:23;15.07;;;10.43;;
64932;SDS011;51446;53.850;10.662;2023-04-15T00:31:49;17.48;;;10.60;;
64932;SDS011;51446;53.850;10.662;2023-04-15T00:34:14;17.37;;;10.50;;
64932;SDS011;51446;53.850;10.662;2023-04-15T00:36:40;18.08;;;10.95;;
64932;SDS011;51446;53.850;10.662;2023-04-15T00:39:06;17.33;;;10.32;;
64932;SDS011;51446;53.850;10.662;2023-04-15T00:41:31;16.93;;;10.47;;
64932;SDS011;51446;53.850;10.662;2023-04-15T00:43:58;19.80;;;10.98;;
64932;SDS011;51446;53.850;10.662;2023-04-15T00:46:24;21.20;;;11.33;;
64932;SDS011;51446;53.850;10.662;2023-04-15T00:48:52;18.55;;;10.43;;
64932;SDS011;51446;53.850;10.662;2023-04-15T00:51:19;20.85;;;10.70;;
64932;SDS011;51446;53.850;10.662;2023-04-15T00:53:44;22.47;;;11.53;;
64932;SDS011;51446;53.850;10.662;2023-04-15T00:56:09;20.20;;;11.30;;
64932;SDS011;51446;53.850;10.662;2023-04-15T00:58:34;24.87;;;12.13;;
64932;SDS011;51446;53.850;10.662;2023-04-15T01:01:01;28.70;;;12.55;;
64932;SDS011;51446;53.850;10.662;2023-04-15T01:03:26;29.08;;;12.60;;
64932;SDS011;51446;53.850;10.662;2023-04-15T01:05:53;29.13;;;12.77;;
64932;SDS011;51446;53.850;10.662;2023-04-15T01:08:22;27.00;;;12.18;;
64932;SDS011;51446;53.850;10.662;2023-04-15T01:10:51;30.95;;;13.82;;
64932;SDS011;51446;53.850;10.662;2023-04-15T01:13:17;37.78;;;14.98;;
64932;SDS011;51446;53.850;10.662;2023-04-15T01:15:43;37.20;;;13.70;;
64932;SDS011;51446;53.850;10.662;2023-04-15T01:18:09;32.60;;;14.23;;
64932;SDS011;51446;53.850;10.662;2023-04-15T01:20:34;37.83;;;14.93;;
64932;SDS011;51446;53.850;10.662;2023-04-15T01:23:00;38.20;;;14.93;;
64932;SDS011;51446;53.850;10.662;2023-04-15T01:25:29;40.97;;;15.32;;
64932;SDS011;51446;53.850;10.662;2023-04-15T01:27:56;43.33;;;14.13;;
64932;SDS011;51446;53.850;10.662;2023-04-15T01:30:22;37.95;;;13.90;;
64932;SDS011;51446;53.850;10.662;2023-04-15T01:32:47;42.40;;;15.30;;
64932;SDS011;51446;53.850;10.662;2023-04-15T01:35:12;44.47;;;16.03;;
64932;SDS011;51446;53.850;10.662;2023-04-15T01:37:38;43.93;;;14.53;;
64932;SDS011;51446;53.850;10.662;2023-04-15T01:40:03;42.50;;;16.03;;
64932;SDS011;51446;53.850;10.662;2023-04-15T01:42:29;47.57;;;16.67;;
64932;SDS011;51446;53.850;10.662;2023-04-15T01:44:54;47.20;;;17.83;;
64932;SDS011;51446;53.850;10.662;2023-04-15T01:47:19;53.00;;;19.10;;
64932;SDS011;51446;53.850;10.662;2023-04-15T01:49:44;57.88;;;19.10;;
64932;SDS011;51446;53.850;10.662;2023-04-15T01:52:10;57.10;;;20.40;;
64932;SDS011;51446;53.850;10.662;2023-04-15T01:54:35;77.87;;;25.20;;
64932;SDS011;51446;53.850;10.662;2023-04-15T01:57:01;70.93;;;26.70;;
64932;SDS011;51446;53.850;10.662;2023-04-15T01:59:27;90.60;;;27.80;;
64932;SDS011;51446;53.850;10.662;2023-04-15T02:01:53;112.68;;;32.63;;
64932;SDS011;51446;53.850;10.662;2023-04-15T02:04:19;95.22;;;28.33;;
64932;SDS011;51446;53.850;10.662;2023-04-15T02:06:44;110.30;;;31.77;;
64932;SDS011;51446;53.850;10.662;2023-04-15T02:09:10;103.80;;;29.07;;
64932;SDS011;51446;53.850;10.662;2023-04-15T02:11:35;106.23;;;30.33;;
64932;SDS011;51446;53.850;10.662;2023-04-15T02:14:01;101.93;;;30.60;;
64932;SDS011;51446;53.850;10.662;2023-04-15T02:16:30;117.05;;;30.48;;
64932;SDS011;51446;53.850;10.662;2023-04-15T02:18:56;112.40;;;30.40;;
64932;SDS011;51446;53.850;10.662;2023-04-15T02:21:21;123.33;;;30.70;;
64932;SDS011;51446;53.850;10.662;2023-04-15T02:23:47;111.60;;;30.97;;
64932;SDS011;51446;53.850;10.662;2023-04-15T02:26:12;121.13;;;29.67;;
64932;SDS011;51446;53.850;10.662;2023-04-15T02:28:38;107.30;;;30.23;;
64932;SDS011;51446;53.850;10.662;2023-04-15T02:31:06;119.93;;;30.10;;
64932;SDS011;51446;53.850;10.662;2023-04-15T02:33:32;119.33;;;30.60;;
64932;SDS011;51446;53.850;10.662;2023-04-15T02:35:57;125.22;;;32.83;;
64932;SDS011;51446;53.850;10.662;2023-04-15T02:38:23;125.87;;;30.93;;
64932;SDS011;51446;53.850;10.662;2023-04-15T02:40:48;123.67;;;31.27;;
64932;SDS011;51446;53.850;10.662;2023-04-15T02:43:14;101.07;;;31.63;;
64932;SDS011;51446;53.850;10.662;2023-04-15T02:45:41;141.88;;;31.27;;
64932;SDS011;51446;53.850;10.662;2023-04-15T02:48:07;157.03;;;32.60;;
64932;SDS011;51446;53.850;10.662;2023-04-15T02:50:32;95.32;;;30.92;;
64932;SDS011;51446;53.850;10.662;2023-04-15T02:52:58;117.03;;;30.60;;
64932;SDS011;51446;53.850;10.662;2023-04-15T02:55:25;118.40;;;30.30;;
64932;SDS011;51446;53.850;10.662;2023-04-15T02:57:50;117.32;;;30.60;;
64932;SDS011;51446;53.850;10.662;2023-04-15T03:00:16;117.07;;;29.90;;
64932;SDS011;51446;53.850;10.662;2023-04-15T03:02:41;146.77;;;30.63;;
64932;SDS011;51446;53.850;10.662;2023-04-15T03:05:10;93.43;;;28.90;;
64932;SDS011;51446;53.850;10.662;2023-04-15T03:07:36;119.68;;;30.15;;
64932;SDS011;51446;53.850;10.662;2023-04-15T03:10:01;114.40;;;29.20;;
64932;SDS011;51446;53.850;10.662;2023-04-15T03:12:27;109.97;;;30.05;;
64932;SDS011;51446;53.850;10.662;2023-04-15T03:14:54;110.00;;;29.00;;
64932;SDS011;51446;53.850;10.662;2023-04-15T03:17:19;120.65;;;30.15;;
64932;SDS011;51446;53.850;10.662;2023-04-15T03:19:44;119.63;;;30.88;;
64932;SDS011;51446;53.850;10.662;2023-04-15T03:22:10;144.80;;;32.23;;
64932;SDS011;51446;53.850;10.662;2023-04-15T03:24:35;124.50;;;30.80;;
64932;SDS011;51446;53.850;10.662;2023-04-15T03:27:00;123.13;;;30.73;;
64932;SDS011;51446;53.850;10.662;2023-04-15T03:29:26;105.50;;;30.40;;
64932;SDS011;51446;53.850;10.662;2023-04-15T03:31:51;130.17;;;31.33;;
64932;SDS011;51446;53.850;10.662;2023-04-15T03:34:17;121.35;;;31.33;;
64932;SDS011;51446;53.850;10.662;2023-04-15T03:36:42;113.93;;;30.57;;
64932;SDS011;51446;53.850;10.662;2023-04-15T03:39:07;129.80;;;31.77;;
64932;SDS011;51446;53.850;10.662;2023-04-15T03:41:33;106.77;;;30.83;;
64932;SDS011;51446;53.850;10.662;2023-04-15T03:43:58;121.63;;;31.40;;
64932;SDS011;51446;53.850;10.662;2023-04-15T03:46:23;111.23;;;31.27;;
64932;SDS011;51446;53.850;10.662;2023-04-15T03:48:49;118.45;;;31.20;;
64932;SDS011;51446;53.850;10.662;2023-04-15T03:51:15;94.32;;;29.80;;
64932;SDS011;51446;53.850;10.662;2023-04-15T03:53:40;94.37;;;30.87;;
64932;SDS011;51446;53.850;10.662;2023-04-15T03:56:05;96.73;;;31.77;;
64932;SDS011;51446;53.850;10.662;2023-04-15T03:58:31;103.03;;;31.07;;
64932;SDS011;51446;53.850;10.662;2023-04-15T04:00:56;104.67;;;32.53;;
64932;SDS011;51446;53.850;10.662;2023-04-15T04:03:21;108.03;;;32.80;;
64932;SDS011;51446;53.850;10.662;2023-04-15T04:05:46;113.00;;;33.07;;
64932;SDS011;51446;53.850;10.662;2023-04-15T04:08:12;95.47;;;30.87;;
64932;SDS011;51446;53.850;10.662;2023-04-15T04:10:40;106.07;;;33.00;;
64932;SDS011;51446;53.850;10.662;2023-04-15T04:13:05;110.27;;;35.03;;
64932;SDS011;51446;53.850;10.662;2023-04-15T04:15:31;116.77;;;36.27;;
64932;SDS011;51446;53.850;10.662;2023-04-15T04:17:56;107.43;;;38.00;;
64932;SDS011;51446;53.850;10.662;2023-04-15T04:20:21;100.63;;;36.55;;
64932;SDS011;51446;53.850;10.662;2023-04-15T04:22:47;108.95;;;39.80;;
64932;SDS011;51446;53.850;10.662;2023-04-15T04:25:12;124.37;;;39.00;;
64932;SDS011;51446;53.850;10.662;2023-04-15T04:27:37;102.90;;;38.57;;
64932;SDS011;51446;53.850;10.662;2023-04-15T04:30:03;125.60;;;42.60;;
64932;SDS011;51446;53.850;10.662;2023-04-15T04:32:29;119.87;;;41.67;;
64932;SDS011;51446;53.850;10.662;2023-04-15T04:34:54;109.88;;;40.55;;
64932;SDS011;51446;53.850;10.662;2023-04-15T04:37:20;125.77;;;42.17;;
64932;SDS011;51446;53.850;10.662;2023-04-15T04:39:45;119.13;;;41.37;;
64932;SDS011;51446;53.850;10.662;2023-04-15T04:42:10;116.97;;;40.30;;
64932;SDS011;51446;53.850;10.662;2023-04-15T04:44:36;123.70;;;43.90;;
64932;SDS011;51446;53.850;10.662;2023-04-15T04:47:01;123.40;;;41.70;;
64932;SDS011;51446;53.850;10.662;2023-04-15T04:49:27;115.63;;;40.67;;
64932;SDS011;51446;53.850;10.662;2023-04-15T04:51:52;127.33;;;40.90;;
64932;SDS011;51446;53.850;10.662;2023-04-15T04:54:17;119.43;;;42.63;;
64932;SDS011;51446;53.850;10.662;2023-04-15T04:56:43;113.70;;;39.90;;
64932;SDS011;51446;53.850;10.662;2023-04-15T04:59:08;120.73;;;42.93;;
64932;SDS011;51446;53.850;10.662;2023-04-15T05:01:33;116.43;;;42.23;;
64932;SDS011;51446;53.850;10.662;2023-04-15T05:03:59;117.68;;;41.78;;
64932;SDS011;51446;53.850;10.662;2023-04-15T05:06:24;104.53;;;39.13;;
64932;SDS011;51446;53.850;10.662;2023-04-15T05:08:50;111.63;;;40.33;;
64932;SDS011;51446;53.850;10.662;2023-04-15T05:11:15;101.17;;;38.13;;
64932;SDS011;51446;53.850;10.662;2023-04-15T05:13:40;101.30;;;38.57;;
64932;SDS011;51446;53.850;10.662;2023-04-15T05:16:06;109.83;;;39.80;;
64932;SDS011;51446;53.850;10.662;2023-04-15T05:18:31;110.57;;;42.05;;
64932;SDS011;51446;53.850;10.662;2023-04-15T05:20:57;103.77;;;40.43;;
64932;SDS011;51446;53.850;10.662;2023-04-15T05:23:23;109.22;;;39.83;;
64932;SDS011;51446;53.850;10.662;2023-04-15T05:25:48;105.93;;;39.70;;
64932;SDS011;51446;53.850;10.662;2023-04-15T05:28:14;100.03;;;37.77;;
64932;SDS011;51446;53.850;10.662;2023-04-15T05:30:39;106.30;;;39.27;;
64932;SDS011;51446;53.850;10.662;2023-04-15T05:33:05;100.43;;;39.75;;
64932;SDS011;51446;53.850;10.662;2023-04-15T05:35:30;89.57;;;38.30;;
64932;SDS011;51446;53.850;10.662;2023-04-15T05:37:55;93.00;;;38.87;;
64932;SDS011;51446;53.850;10.662;2023-04-15T05:40:20;99.60;;;40.77;;
64932;SDS011;51446;53.850;10.662;2023-04-15T05:42:46;102.80;;;38.87;;
64932;SDS011;51446;53.850;10.662;2023-04-15T05:45:11;100.57;;;38.43;;
64932;SDS011;51446;53.850;10.662;2023-04-15T05:47:37;99.70;;;39.67;;
64932;SDS011;51446;53.850;10.662;2023-04-15T05:50:03;91.10;;;38.17;;
64932;SDS011;51446;53.850;10.662;2023-04-15T05:52:28;95.55;;;37.05;;
64932;SDS011;51446;53.850;10.662;2023-04-15T05:54:54;94.38;;;38.95;;
64932;SDS011;51446;53.850;10.662;2023-04-15T05:57:20;98.68;;;38.80;;
64932;SDS011;51446;53.850;10.662;2023-04-15T05:59:45;94.13;;;37.30;;
64932;SDS011;51446;53.850;10.662;2023-04-15T06:02:11;91.93;;;37.77;;
64932;SDS011;51446;53.850;10.662;2023-04-15T06:04:36;90.10;;;34.87;;
64932;SDS011;51446;53.850;10.662;2023-04-15T06:07:01;95.90;;;37.43;;
64932;SDS011;51446;53.850;10.662;2023-04-15T06:09:26;88.80;;;36.33;;
64932;SDS011;51446;53.850;10.662;2023-04-15T06:11:53;94.07;;;36.25;;
64932;SDS011;51446;53.850;10.662;2023-04-15T06:14:18;88.90;;;35.53;;
64932;SDS011;51446;53.850;10.662;2023-04-15T06:16:43;89.80;;;33.53;;
64932;SDS011;51446;53.850;10.662;2023-04-15T06:19:09;90.87;;;33.87;;
64932;SDS011;51446;53.850;10.662;2023-04-15T06:21:34;84.77;;;33.07;;
64932;SDS011;51446;53.850;10.662;2023-04-15T06:23:59;85.80;;;33.87;;
64932;SDS011;51446;53.850;10.662;2023-04-15T06:26:25;89.90;;;33.37;;
64932;SDS011;51446;53.850;10.662;2023-04-15T06:28:51;83.00;;;33.60;;
64932;SDS011;51446;53.850;10.662;2023-04-15T06:31:16;85.57;;;34.53;;
64932;SDS011;51446;53.850;10.662;2023-04-15T06:33:41;85.13;;;31.60;;
64932;SDS011;51446;53.850;10.662;2023-04-15T06:36:07;80.63;;;33.50;;
64932;SDS011;51446;53.850;10.662;2023-04-15T06:38:32;86.83;;;34.40;;
64932;SDS011;51446;53.850;10.662;2023-04-15T06:40:57;78.30;;;32.30;;
64932;SDS011;51446;53.850;10.662;2023-04-15T06:43:23;80.80;;;32.50;;
64932;SDS011;51446;53.850;10.662;2023-04-15T06:45:48;83.18;;;32.90;;
64932;SDS011;51446;53.850;10.662;2023-04-15T06:48:13;77.13;;;31.35;;
64932;SDS011;51446;53.850;10.662;2023-04-15T06:50:38;72.85;;;30.80;;
64932;SDS011;51446;53.850;10.662;2023-04-15T06:53:04;72.43;;;31.83;;
64932;SDS011;51446;53.850;10.662;2023-04-15T06:55:29;71.80;;;29.10;;
64932;SDS011;51446;53.850;10.662;2023-04-15T06:57:55;69.07;;;29.25;;
64932;SDS011;51446;53.850;10.662;2023-04-15T07:00:20;69.57;;;28.37;;
64932;SDS011;51446;53.850;10.662;2023-04-15T07:02:46;63.67;;;27.83;;
64932;SDS011;51446;53.850;10.662;2023-04-15T07:05:11;68.23;;;28.80;;
64932;SDS011;51446;53.850;10.662;2023-04-15T07:07:37;64.27;;;27.70;;
64932;SDS011;51446;53.850;10.662;2023-04-15T07:10:02;60.53;;;26.90;;
64932;SDS011;51446;53.850;10.662;2023-04-15T07:12:27;58.67;;;26.70;;
64932;SDS011;51446;53.850;10.662;2023-04-15T07:14:53;59.93;;;26.67;;
64932;SDS011;51446;53.850;10.662;2023-04-15T07:17:18;61.20;;;27.73;;
64932;SDS011;51446;53.850;10.662;2023-04-15T07:19:43;61.67;;;26.87;;
64932;SDS011;51446;53.850;10.662;2023-04-15T07:22:09;61.73;;;25.70;;
64932;SDS011;51446;53.850;10.662;2023-04-15T07:24:34;64.73;;;27.90;;
64932;SDS011;51446;53.850;10.662;2023-04-15T07:26:59;60.63;;;26.27;;
64932;SDS011;51446;53.850;10.662;2023-04-15T07:29:25;58.63;;;25.63;;
64932;SDS011;51446;53.850;10.662;2023-04-15T07:31:51;62.80;;;27.87;;
64932;SDS011;51446;53.850;10.662;2023-04-15T07:34:18;61.33;;;27.83;;
64932;SDS011;51446;53.850;10.662;2023-04-15T07:36:44;56.13;;;24.27;;
64932;SDS011;51446;53.850;10.662;2023-04-15T07:39:10;57.40;;;24.97;;
64932;SDS011;51446;53.850;10.662;2023-04-15T07:41:35;56.37;;;25.43;;
64932;SDS011;51446;53.850;10.662;2023-04-15T07:44:00;60.95;;;25.50;;
64932;SDS011;51446;53.850;10.662;2023-04-15T07:46:26;59.77;;;25.53;;
64932;SDS011;51446;53.850;10.662;2023-04-15T07:48:52;56.42;;;24.25;;
64932;SDS011;51446;53.850;10.662;2023-04-15T07:51:18;53.97;;;23.43;;
64932;SDS011;51446;53.850;10.662;2023-04-15T07:53:45;60.17;;;25.27;;
64932;SDS011;51446;53.850;10.662;2023-04-15T07:56:10;45.78;;;23.20;;
64932;SDS011;51446;53.850;10.662;2023-04-15T07:58:36;54.50;;;24.57;;
64932;SDS011;51446;53.850;10.662;2023-04-15T08:01:03;54.53;;;24.13;;
64932;SDS011;51446;53.850;10.662;2023-04-15T08:03:29;53.17;;;23.35;;
64932;SDS011;51446;53.850;10.662;2023-04-15T08:05:54;51.00;;;22.90;;
64932;SDS011;51446;53.850;10.662;2023-04-15T08:08:19;57.97;;;23.93;;
64932;SDS011;51446;53.850;10.662;2023-04-15T08:10:45;51.80;;;23.30;;
64932;SDS011;51446;53.850;10.662;2023-04-15T08:13:10;50.78;;;23.65;;
64932;SDS011;51446;53.850;10.662;2023-04-15T08:15:36;50.57;;;22.87;;
64932;SDS011;51446;53.850;10.662;2023-04-15T08:18:01;49.67;;;24.57;;
64932;SDS011;51446;53.850;10.662;2023-04-15T08:20:27;49.05;;;24.08;;
64932;SDS011;51446;53.850;10.662;2023-04-15T08:22:52;53.80;;;23.13;;
64932;SDS011;51446;53.850;10.662;2023-04-15T08:25:17;53.73;;;23.13;;
64932;SDS011;51446;53.850;10.662;2023-04-15T08:27:44;50.13;;;22.38;;
64932;SDS011;51446;53.850;10.662;2023-04-15T08:30:09;46.40;;;23.27;;
64932;SDS011;51446;53.850;10.662;2023-04-15T08:32:35;48.30;;;23.38;;
64932;SDS011;51446;53.850;10.662;2023-04-15T08:35:01;49.20;;;21.57;;
64932;SDS011;51446;53.850;10.662;2023-04-15T08:37:26;47.55;;;22.40;;
64932;SDS011;51446;53.850;10.662;2023-04-15T08:39:52;43.05;;;21.17;;
64932;SDS011;51446;53.850;10.662;2023-04-15T08:42:18;48.10;;;22.43;;
64932;SDS011;51446;53.850;10.662;2023-04-15T08:44:51;41.13;;;20.42;;
64932;SDS011;51446;53.850;10.662;2023-04-15T08:47:18;42.77;;;20.57;;
64932;SDS011;51446;53.850;10.662;2023-04-15T08:49:45;40.60;;;19.67;;
64932;SDS011;51446;53.850;10.662;2023-04-15T08:52:17;37.50;;;18.88;;
64932;SDS011;51446;53.850;10.662;2023-04-15T08:54:43;38.80;;;18.48;;
64932;SDS011;51446;53.850;10.662;2023-04-15T08:57:08;35.20;;;18.37;;
64932;SDS011;51446;53.850;10.662;2023-04-15T08:59:34;32.30;;;17.20;;
64932;SDS011;51446;53.850;10.662;2023-04-15T09:02:00;34.08;;;17.23;;
64932;SDS011;51446;53.850;10.662;2023-04-15T09:04:26;35.35;;;17.40;;
64932;SDS011;51446;53.850;10.662;2023-04-15T09:06:52;31.63;;;16.90;;
64932;SDS011;51446;53.850;10.662;2023-04-15T09:09:17;34.90;;;18.97;;
64932;SDS011;51446;53.850;10.662;2023-04-15T09:11:42;38.67;;;19.05;;
64932;SDS011;51446;53.850;10.662;2023-04-15T09:14:08;37.38;;;19.77;;
64932;SDS011;51446;53.850;10.662;2023-04-15T09:19:22;31.27;;;18.10;;
64932;SDS011;51446;53.850;10.662;2023-04-15T09:21:49;37.00;;;18.50;;
64932;SDS011;51446;53.850;10.662;2023-04-15T09:24:15;35.33;;;18.52;;
64932;SDS011;51446;53.850;10.662;2023-04-15T09:26:40;36.90;;;19.00;;
64932;SDS011;51446;53.850;10.662;2023-04-15T09:29:07;36.50;;;19.65;;
64932;SDS011;51446;53.850;10.662;2023-04-15T09:31:34;34.70;;;19.23;;
64932;SDS011;51446;53.850;10.662;2023-04-15T09:34:00;32.88;;;19.23;;
64932;SDS011;51446;53.850;10.662;2023-04-15T09:36:26;29.10;;;18.27;;
64932;SDS011;51446;53.850;10.662;2023-04-15T09:38:55;32.95;;;18.98;;
64932;SDS011;51446;53.850;10.662;2023-04-15T09:41:22;30.05;;;19.00;;
64932;SDS011;51446;53.850;10.662;2023-04-15T09:43:48;28.58;;;17.80;;
64932;SDS011;51446;53.850;10.662;2023-04-15T09:46:13;28.53;;;17.97;;
64932;SDS011;51446;53.850;10.662;2023-04-15T09:48:38;29.00;;;17.77;;
64932;SDS011;51446;53.850;10.662;2023-04-15T09:51:04;31.03;;;16.37;;
64932;SDS011;51446;53.850;10.662;2023-04-15T09:53:31;25.33;;;16.05;;
64932;SDS011;51446;53.850;10.662;2023-04-15T09:55:58;25.70;;;15.88;;
64932;SDS011;51446;53.850;10.662;2023-04-15T09:58:26;25.73;;;16.13;;
64932;SDS011;51446;53.850;10.662;2023-04-15T10:00:54;26.98;;;15.98;;
64932;SDS011;51446;53.850;10.662;2023-04-15T10:03:22;28.10;;;15.15;;
64932;SDS011;51446;53.850;10.662;2023-04-15T10:05:49;23.80;;;14.80;;
64932;SDS011;51446;53.850;10.662;2023-04-15T10:08:16;26.30;;;14.75;;
64932;SDS011;51446;53.850;10.662;2023-04-15T10:10:47;22.23;;;15.07;;
64932;SDS011;51446;53.850;10.662;2023-04-15T10:13:13;24.10;;;14.63;;
64932;SDS011;51446;53.850;10.662;2023-04-15T10:15:42;24.08;;;13.85;;
64932;SDS011;51446;53.850;10.662;2023-04-15T10:18:10;24.88;;;14.38;;
64932;SDS011;51446;53.850;10.662;2023-04-15T10:20:37;23.60;;;12.57;;
64932;SDS011;51446;53.850;10.662;2023-04-15T10:23:03;18.07;;;12.10;;
64932;SDS011;51446;53.850;10.662;2023-04-15T10:25:29;17.83;;;12.07;;
64932;SDS011;51446;53.850;10.662;2023-04-15T10:27:57;19.83;;;12.43;;
64932;SDS011;51446;53.850;10.662;2023-04-15T10:30:23;20.05;;;13.25;;
64932;SDS011;51446;53.850;10.662;2023-04-15T10:32:49;21.40;;;13.27;;
64932;SDS011;51446;53.850;10.662;2023-04-15T10:35:15;21.50;;;13.02;;
64932;SDS011;51446;53.850;10.662;2023-04-15T10:37:42;22.42;;;14.25;;
64932;SDS011;51446;53.850;10.662;2023-04-15T10:40:23;22.37;;;15.37;;
64932;SDS011;51446;53.850;10.662;2023-04-15T10:42:49;23.95;;;15.35;;
64932;SDS011;51446;53.850;10.662;2023-04-15T10:45:15;22.77;;;14.73;;
64932;SDS011;51446;53.850;10.662;2023-04-15T10:47:42;24.77;;;15.77;;
64932;SDS011;51446;53.850;10.662;2023-04-15T10:50:07;23.77;;;15.60;;
64932;SDS011;51446;53.850;10.662;2023-04-15T10:52:33;27.03;;;16.33;;
64932;SDS011;51446;53.850;10.662;2023-04-15T10:57:33;25.67;;;15.63;;
64932;SDS011;51446;53.850;10.662;2023-04-15T11:02:46;25.13;;;17.17;;
64932;SDS011;51446;53.850;10.662;2023-04-15T11:05:17;27.30;;;17.08;;
64932;SDS011;51446;53.850;10.662;2023-04-15T11:07:48;28.05;;;17.92;;
64932;SDS011;51446;53.850;10.662;2023-04-15T11:10:49;27.67;;;18.10;;
64932;SDS011;51446;53.850;10.662;2023-04-15T11:15:35;28.42;;;18.10;;
64932;SDS011;51446;53.850;10.662;2023-04-15T11:20:31;25.77;;;16.13;;
64932;SDS011;51446;53.850;10.662;2023-04-15T11:22:56;25.30;;;17.40;;
64932;SDS011;51446;53.850;10.662;2023-04-15T11:25:25;27.30;;;17.07;;
64932;SDS011;51446;53.850;10.662;2023-04-15T11:27:55;34.03;;;17.75;;
64932;SDS011;51446;53.850;10.662;2023-04-15T11:30:21;28.50;;;18.10;;
64932;SDS011;51446;53.850;10.662;2023-04-15T11:32:51;30.15;;;18.88;;
64932;SDS011;51446;53.850;10.662;2023-04-15T11:35:18;28.83;;;18.00;;
64932;SDS011;51446;53.850;10.662;2023-04-15T11:37:44;24.38;;;16.63;;
64932;SDS011;51446;53.850;10.662;2023-04-15T11:40:10;28.92;;;16.90;;
64932;SDS011;51446;53.850;10.662;2023-04-15T11:42:37;29.65;;;18.50;;
64932;SDS011;51446;53.850;10.662;2023-04-15T11:45:06;24.20;;;16.30;;
64932;SDS011;51446;53.850;10.662;2023-04-15T11:47:33;27.20;;;18.33;;
64932;SDS011;51446;53.850;10.662;2023-04-15T11:50:12;28.38;;;17.02;;
64932;SDS011;51446;53.850;10.662;2023-04-15T11:52:38;26.58;;;17.35;;
64932;SDS011;51446;53.850;10.662;2023-04-15T11:55:05;26.88;;;18.05;;
64932;SDS011;51446;53.850;10.662;2023-04-15T11:57:32;23.45;;;16.10;;
64932;SDS011;51446;53.850;10.662;2023-04-15T11:59:59;25.52;;;16.85;;
64932;SDS011;51446;53.850;10.662;2023-04-15T12:02:30;24.97;;;15.13;;
64932;SDS011;51446;53.850;10.662;2023-04-15T12:05:07;23.15;;;15.50;;
64932;SDS011;51446;53.850;10.662;2023-04-15T12:07:32;24.65;;;14.68;;
64932;SDS011;51446;53.850;10.662;2023-04-15T12:09:58;22.87;;;14.07;;
64932;SDS011;51446;53.850;10.662;2023-04-15T12:12:27;23.67;;;14.73;;
64932;SDS011;51446;53.850;10.662;2023-04-15T12:14:52;28.52;;;17.00;;
64932;SDS011;51446;53.850;10.662;2023-04-15T12:17:18;30.87;;;16.40;;
64932;SDS011;51446;53.850;10.662;2023-04-15T12:19:43;27.27;;;17.50;;
64932;SDS011;51446;53.850;10.662;2023-04-15T12:22:13;23.48;;;17.70;;
64932;SDS011;51446;53.850;10.662;2023-04-15T12:24:40;26.70;;;17.57;;
64932;SDS011;51446;53.850;10.662;2023-04-15T12:27:08;25.27;;;16.80;;
64932;SDS011;51446;53.850;10.662;2023-04-15T12:29:36;27.25;;;17.65;;
64932;SDS011;51446;53.850;10.662;2023-04-15T12:32:06;26.55;;;17.25;;
64932;SDS011;51446;53.850;10.662;2023-04-15T12:34:40;24.83;;;16.60;;
64932;SDS011;51446;53.850;10.662;2023-04-15T12:37:08;27.13;;;17.52;;
64932;SDS011;51446;53.850;10.662;2023-04-15T12:39:34;25.45;;;16.80;;
64932;SDS011;51446;53.850;10.662;2023-04-15T12:42:01;29.05;;;17.48;;
64932;SDS011;51446;53.850;10.662;2023-04-15T12:44:28;27.98;;;17.23;;
64932;SDS011;51446;53.850;10.662;2023-04-15T12:46:53;27.07;;;16.60;;
64932;SDS011;51446;53.850;10.662;2023-04-15T12:49:20;29.00;;;17.67;;
64932;SDS011;51446;53.850;10.662;2023-04-15T12:51:47;29.83;;;18.27;;
64932;SDS011;51446;53.850;10.662;2023-04-15T12:54:13;28.38;;;16.55;;
64932;SDS011;51446;53.850;10.662;2023-04-15T12:56:38;27.73;;;17.23;;
64932;SDS011;51446;53.850;10.662;2023-04-15T12:59:03;23.53;;;16.73;;
64932;SDS011;51446;53.850;10.662;2023-04-15T13:01:29;23.03;;;16.60;;
64932;SDS011;51446;53.850;10.662;2023-04-15T13:03:54;27.73;;;18.17;;
64932;SDS011;51446;53.850;10.662;2023-04-15T13:06:19;26.30;;;18.10;;
64932;SDS011;51446;53.850;10.662;2023-04-15T13:08:45;23.83;;;16.43;;
64932;SDS011;51446;53.850;10.662;2023-04-15T13:11:10;28.73;;;16.93;;
64932;SDS011;51446;53.850;10.662;2023-04-15T13:13:36;26.87;;;16.17;;
64932;SDS011;51446;53.850;10.662;2023-04-15T13:16:01;24.73;;;15.93;;
64932;SDS011;51446;53.850;10.662;2023-04-15T13:18:26;21.77;;;16.00;;
64932;SDS011;51446;53.850;10.662;2023-04-15T13:20:52;24.93;;;15.20;;
64932;SDS011;51446;53.850;10.662;2023-04-15T13:23:18;24.58;;;15.23;;
64932;SDS011;51446;53.850;10.662;2023-04-15T13:25:43;25.67;;;15.57;;
64932;SDS011;51446;53.850;10.662;2023-04-15T13:28:10;26.17;;;16.48;;
64932;SDS011;51446;53.850;10.662;2023-04-15T13:30:36;21.20;;;14.27;;
64932;SDS011;51446;53.850;10.662;2023-04-15T13:33:02;24.35;;;14.98;;
64932;SDS011;51446;53.850;10.662;2023-04-15T13:35:27;23.77;;;15.17;;
64932;SDS011;51446;53.850;10.662;2023-04-15T13:37:53;26.65;;;14.88;;
64932;SDS011;51446;53.850;10.662;2023-04-15T13:40:19;20.67;;;13.93;;
64932;SDS011;51446;53.850;10.662;2023-04-15T13:42:44;23.83;;;14.80;;
64932;SDS011;51446;53.850;10.662;2023-04-15T13:45:11;21.53;;;14.90;;
64932;SDS011;51446;53.850;10.662;2023-04-15T13:47:36;25.37;;;15.77;;
64932;SDS011;51446;53.850;10.662;2023-04-15T13:50:01;21.80;;;14.55;;
64932;SDS011;51446;53.850;10.662;2023-04-15T13:52:26;22.25;;;14.75;;
64932;SDS011;51446;53.850;10.662;2023-04-15T13:54:52;22.93;;;15.63;;
64932;SDS011;51446;53.850;10.662;2023-04-15T13:57:17;26.50;;;15.60;;
64932;SDS011;51446;53.850;10.662;2023-04-15T13:59:42;25.33;;;15.87;;
64932;SDS011;51446;53.850;10.662;2023-04-15T14:02:08;21.17;;;14.17;;
64932;SDS011;51446;53.850;10.662;2023-04-15T14:04:33;21.33;;;13.30;;
64932;SDS011;51446;53.850;10.662;2023-04-15T14:06:58;24.60;;;13.27;;
64932;SDS011;51446;53.850;10.662;2023-04-15T14:09:24;23.55;;;13.82;;
64932;SDS011;51446;53.850;10.662;2023-04-15T14:11:50;23.00;;;14.83;;